createdAt,value
2023-01-06T00:04:15.865Z,0.20
2023-01-06T00:09:19.458Z,0.30
2023-01-06T00:14:23.077Z,0.37
2023-01-06T00:19:28.131Z,0.40
2023-01-06T00:24:31.766Z,0.40
2023-01-06T00:29:35.446Z,0.40
2023-01-06T00:34:40.447Z,0.40
2023-01-06T00:39:44.030Z,0.30
2023-01-06T00:44:49.633Z,0.40
2023-01-06T00:49:55.046Z,0.60
2023-01-06T00:54:58.667Z,0.53
2023-01-06T01:00:02.281Z,0.40
2023-01-06T01:05:07.885Z,0.43
2023-01-06T01:10:12.846Z,0.40
2023-01-06T01:15:16.777Z,0.40
2023-01-06T01:20:21.786Z,0.30
2023-01-06T01:25:27.024Z,0.30
2023-01-06T01:30:30.658Z,0.27
2023-01-06T01:35:35.669Z,0.37
2023-01-06T01:40:39.254Z,0.40
2023-01-06T01:45:45.291Z,0.40
2023-01-06T01:50:52.987Z,0.30
2023-01-06T01:55:59.540Z,0.30
2023-01-06T02:01:03.757Z,0.30
2023-01-06T02:06:14.940Z,0.20
2023-01-06T02:11:19.272Z,0.40
2023-01-06T02:16:48.674Z,0.30
2023-01-06T02:22:14.892Z,0.37
2023-01-06T02:27:58.419Z,0.30
2023-01-06T02:33:19.038Z,0.20
2023-01-06T02:38:36.032Z,0.20
2023-01-06T02:43:52.142Z,0.13
2023-01-06T02:49:10.522Z,0.17
2023-01-06T02:54:21.849Z,0.30
2023-01-06T02:59:34.410Z,0.20
2023-01-06T03:04:46.556Z,0.23
2023-01-06T03:09:53.577Z,0.30
2023-01-06T03:14:58.151Z,0.20
2023-01-06T03:20:03.204Z,0.20
2023-01-06T03:25:08.905Z,0.30
2023-01-06T03:30:14.180Z,0.27
2023-01-06T03:35:31.424Z,0.40
2023-01-06T03:40:41.276Z,0.20
2023-01-06T03:45:56.308Z,0.20
2023-01-06T03:51:15.576Z,0.30
2023-01-06T03:56:24.952Z,0.27
2023-01-06T04:01:30.967Z,0.30
2023-01-06T04:06:36.751Z,0.23
2023-01-06T04:12:08.322Z,0.10
2023-01-06T04:17:15.072Z,0.20
2023-01-06T04:22:21.392Z,0.30
2023-01-06T04:27:25.101Z,0.20
2023-01-06T04:32:29.115Z,0.30
2023-01-06T04:37:35.247Z,0.30
2023-01-06T04:42:56.322Z,0.10
2023-01-06T04:47:59.999Z,0.20
2023-01-06T04:53:05.210Z,0.20
2023-01-06T04:58:09.772Z,0.30
2023-01-06T05:03:13.666Z,0.20
2023-01-06T05:08:18.602Z,0.20
2023-01-06T05:13:22.207Z,0.20
2023-01-06T05:18:25.906Z,0.20
2023-01-06T05:23:30.868Z,0.20
2023-01-06T05:28:34.555Z,0.30
2023-01-06T05:33:38.919Z,0.30
2023-01-06T05:38:44.168Z,0.30
2023-01-06T05:43:47.725Z,0.10
2023-01-06T05:48:51.333Z,0.20
2023-01-06T05:53:56.681Z,0.30
2023-01-06T05:59:00.286Z,0.40
2023-01-06T06:04:04.383Z,0.20
2023-01-06T06:09:09.677Z,0.20
2023-01-06T06:14:14.274Z,0.30
2023-01-06T06:19:19.009Z,0.20
2023-01-06T06:24:23.974Z,0.40
2023-01-06T06:29:27.569Z,0.30
2023-01-06T06:34:31.149Z,0.30
2023-01-06T06:39:36.071Z,0.20
2023-01-06T06:44:39.934Z,0.10
2023-01-06T06:49:43.524Z,0.20
2023-01-06T06:54:48.467Z,0.20
2023-01-06T06:59:52.497Z,0.10
2023-01-06T07:04:56.125Z,0.17
2023-01-06T07:10:01.008Z,0.10
2023-01-06T07:15:04.986Z,0.20
2023-01-06T07:20:09.547Z,0.30
2023-01-06T07:25:14.447Z,0.20
2023-01-06T07:30:18.240Z,0.30
2023-01-06T07:35:21.818Z,0.30
2023-01-06T07:40:26.770Z,0.37
2023-01-06T07:45:30.343Z,0.33
2023-01-06T07:50:34.399Z,0.40
2023-01-06T07:55:39.637Z,0.10
2023-01-06T08:00:43.156Z,0.30
2023-01-06T08:05:46.817Z,0.20
2023-01-06T08:10:51.914Z,0.13
2023-01-06T08:15:55.631Z,0.20
2023-01-06T08:21:02.054Z,0.30
2023-01-06T08:26:10.426Z,0.20
2023-01-06T08:31:15.617Z,0.20
2023-01-06T08:36:21.640Z,0.30
2023-01-06T08:41:26.605Z,0.30
2023-01-06T08:46:30.329Z,0.27
2023-01-06T08:51:34.907Z,0.20
2023-01-06T08:56:43.377Z,0.20
2023-01-06T09:01:47.114Z,0.20
2023-01-06T09:06:51.347Z,0.13
2023-01-06T09:11:56.380Z,0.20
2023-01-06T09:17:00.266Z,0.23
2023-01-06T09:22:03.888Z,0.30
2023-01-06T09:27:08.871Z,0.40
2023-01-06T09:32:12.603Z,0.37
2023-01-06T09:37:16.520Z,0.20
2023-01-06T09:42:45.779Z,0.27
2023-01-06T09:47:55.761Z,0.20
2023-01-06T09:53:02.937Z,0.20
2023-01-06T09:58:13.693Z,0.20
2023-01-06T10:03:19.500Z,0.10
2023-01-06T10:08:31.097Z,0.10
2023-01-06T10:13:57.041Z,0.10
2023-01-06T10:19:08.570Z,0.07
2023-01-06T10:24:27.853Z,0.10
2023-01-06T10:29:36.556Z,0.20
2023-01-06T10:34:40.381Z,0.20
2023-01-06T10:39:47.093Z,0.20
2023-01-06T10:44:52.490Z,0.20
2023-01-06T10:49:56.587Z,0.10
2023-01-06T10:55:05.050Z,0.20
2023-01-06T11:00:13.216Z,0.30
2023-01-06T11:05:18.712Z,0.40
2023-01-06T11:10:30.987Z,0.20
2023-01-06T11:15:41.187Z,0.30
2023-01-06T11:20:44.953Z,0.30
2023-01-06T11:26:02.501Z,0.20
2023-01-06T11:31:09.920Z,0.10
2023-01-06T11:36:15.544Z,0.20
2023-01-06T11:41:29.680Z,0.20
2023-01-06T11:46:35.255Z,0.30
2023-01-06T11:51:50.093Z,0.20
2023-01-06T11:57:19.326Z,0.20
2023-01-06T12:02:30.834Z,0.30
2023-01-06T12:07:39.976Z,0.20
2023-01-06T12:12:43.613Z,0.20
2023-01-06T12:17:52.732Z,0.20
2023-01-06T12:22:59.734Z,0.30
2023-01-06T12:28:05.484Z,0.20
2023-01-06T12:33:14.758Z,0.10
2023-01-06T12:38:47.481Z,0.30
2023-01-06T12:43:56.973Z,0.20
2023-01-06T12:49:05.697Z,0.13
2023-01-06T12:54:16.073Z,0.10
2023-01-06T12:59:27.987Z,0.10
2023-01-06T13:05:01.246Z,0.20
2023-01-06T13:10:19.240Z,0.13
2023-01-06T13:15:26.587Z,0.20
2023-01-06T13:20:35.822Z,0.10
2023-01-06T13:25:55.083Z,0.13
2023-01-06T13:31:23.290Z,0.20
2023-01-06T13:37:03.011Z,0.10
2023-01-06T13:42:08.947Z,0.20
2023-01-06T13:47:15.572Z,0.10
2023-01-06T13:52:24.345Z,0.10
2023-01-06T13:57:34.022Z,0.10
2023-01-06T14:03:21.389Z,0.10
2023-01-06T14:08:29.572Z,0.20
2023-01-06T14:13:37.695Z,0.10
2023-01-06T14:18:44.898Z,0.00
2023-01-06T14:23:56.986Z,0.10
2023-01-06T14:29:34.044Z,0.10
2023-01-06T14:34:41.823Z,0.10
2023-01-06T14:39:50.373Z,0.00
2023-01-06T14:44:56.995Z,0.00
2023-01-06T14:50:05.933Z,0.10
2023-01-06T14:55:17.722Z,0.00
2023-01-06T15:00:25.048Z,0.00
2023-01-06T15:05:31.420Z,0.00
2023-01-06T15:10:39.076Z,0.20
2023-01-06T15:15:43.491Z,0.20
2023-01-06T15:20:47.665Z,0.10
2023-01-06T15:25:55.006Z,0.10
2023-01-06T15:30:59.549Z,0.20
2023-01-06T15:36:04.482Z,0.13
2023-01-06T15:41:30.284Z,0.20
2023-01-06T15:46:41.341Z,0.03
2023-01-06T15:51:55.473Z,0.20
2023-01-06T15:57:15.273Z,0.10
2023-01-06T16:02:24.077Z,0.00
2023-01-06T16:07:43.074Z,0.13
2023-01-06T16:13:04.289Z,0.30
2023-01-06T16:18:09.820Z,0.10
2023-01-06T16:23:25.889Z,0.20
2023-01-06T16:28:30.912Z,0.20
2023-01-06T16:33:39.028Z,0.20
2023-01-06T16:38:42.793Z,0.40
2023-01-06T16:43:47.972Z,1.13
2023-01-06T16:48:53.436Z,0.40
2023-01-06T16:53:57.054Z,0.37
2023-01-06T16:59:02.322Z,0.30
2023-01-06T17:04:09.071Z,0.20
2023-01-06T17:09:19.700Z,0.20
2023-01-06T17:14:24.736Z,0.40
2023-01-06T17:19:32.387Z,0.20
2023-01-06T17:24:36.721Z,0.30
2023-01-06T17:29:41.809Z,0.30
2023-01-06T17:34:45.527Z,0.70
2023-01-06T17:39:49.633Z,0.60
2023-01-06T17:44:56.749Z,0.27
2023-01-06T17:50:01.886Z,0.30
2023-01-06T17:55:45.491Z,0.20
2023-01-06T18:00:50.470Z,0.20
2023-01-06T18:06:09.109Z,0.10
2023-01-06T18:11:27.873Z,0.30
2023-01-06T18:16:35.187Z,0.20
2023-01-06T18:21:39.272Z,0.20
2023-01-06T18:26:48.850Z,0.20
2023-01-06T18:31:55.023Z,0.20
2023-01-06T18:37:00.233Z,0.20
2023-01-06T18:42:23.066Z,0.20
2023-01-06T18:47:31.406Z,0.30
2023-01-06T18:52:41.454Z,0.40
2023-01-06T18:57:46.229Z,0.50
2023-01-06T19:02:53.076Z,0.40
2023-01-06T19:07:58.117Z,0.80
2023-01-06T19:13:05.994Z,0.70
2023-01-06T19:18:15.710Z,0.60
2023-01-06T19:23:22.428Z,0.60
2023-01-06T19:28:30.255Z,0.70
2023-01-06T19:33:38.810Z,0.80
2023-01-06T19:38:43.865Z,0.77
2023-01-06T19:43:48.678Z,0.73
2023-01-06T19:48:55.612Z,0.90
2023-01-06T19:54:01.641Z,1.20
2023-01-06T19:59:16.634Z,0.80
2023-01-06T20:04:25.290Z,0.70
2023-01-06T20:09:28.970Z,0.40
2023-01-06T20:14:32.662Z,0.43
2023-01-06T20:19:37.626Z,0.40
2023-01-06T20:24:41.530Z,0.50
2023-01-06T20:29:45.092Z,0.40
2023-01-06T20:34:50.047Z,0.50
2023-01-06T20:39:53.656Z,0.40
2023-01-06T20:44:57.237Z,0.20
2023-01-06T20:50:02.450Z,0.30
2023-01-06T20:55:06.865Z,0.50
2023-01-06T21:00:12.754Z,0.40
2023-01-06T21:05:18.403Z,0.30
2023-01-06T21:10:22.130Z,0.30
2023-01-06T21:15:26.078Z,0.20
2023-01-06T21:20:31.190Z,0.13
2023-01-06T21:25:35.214Z,0.33
2023-01-06T21:30:38.928Z,0.23
2023-01-06T21:35:44.041Z,0.50
2023-01-06T21:40:47.695Z,0.50
2023-01-06T21:45:51.360Z,0.77
2023-01-06T21:50:56.321Z,0.40
2023-01-06T21:56:00.026Z,0.40
2023-01-06T22:01:03.757Z,0.40
2023-01-06T22:06:09.768Z,0.50
2023-01-06T22:11:13.457Z,0.33
2023-01-06T22:16:17.322Z,0.53
2023-01-06T22:21:23.021Z,0.40
2023-01-06T22:26:26.591Z,0.50
2023-01-06T22:31:32.536Z,0.30
2023-01-06T22:36:37.567Z,0.20
2023-01-06T22:41:41.214Z,0.30
2023-01-06T22:46:44.780Z,0.20
2023-01-06T22:51:49.791Z,0.30
2023-01-06T22:56:53.389Z,0.30
2023-01-06T23:01:57.145Z,0.40
2023-01-06T23:07:02.188Z,0.23
2023-01-06T23:12:07.005Z,0.33
2023-01-06T23:17:12.843Z,0.60
2023-01-06T23:22:17.816Z,0.40
2023-01-06T23:27:21.588Z,0.30
2023-01-06T23:32:25.161Z,0.30
2023-01-06T23:37:30.161Z,0.80
2023-01-06T23:42:40.499Z,0.30
2023-01-06T23:47:47.819Z,0.50
2023-01-06T23:52:54.702Z,0.40
2023-01-06T23:57:58.398Z,0.40
